»·PEaware :: N441QF KSAC-KMCC

N441QF :: KSAC-KMCC

FLIGHT INFORMATION

Flight Status: Arrived
Operator: Privately registered:
United States
More flights under this callsign
Pilot: Matt C. (2632)
Aircraft: CESSNA 172 SKYHAWK
(C172)
More flights by this aircraft type
Origin: KSAC Sacramento Executive
United States
Destination: KMCC McClellan
United States
More flights between these airports :: More routes between these airports
Route: SAC
File this flight plan on PilotEdge
Remarks:
Altitude:
(Current/Filed)
3,000ft
Speed:
(Current/Filed)
113kts
Departed: 18-Jun-17 03:52 PM
Arrived: 18-Jun-17 04:32 PM
Distance/Time
Traveled:
11nm/0:40
Distance/Time
To Go:
Arrived

Flight Plot

Page will automatically refresh every two minutes.

Flight plan parsing failed; only flown route is shown


Map Options




Map Legend


Flown Route
Filed Route
Departure Airport
Arrival Airport
Navaid (VOR, NDB)
Fix

Horizontal Profiles

Position Reports

Time Latitude Longitude Heading Altitude Ground
Speed
18-Jun-17 15:34 38.515322 -121.495788 132 27ft 0kts
18-Jun-17 15:35 38.514999 -121.495321 129 27ft 0kts
18-Jun-17 15:36 38.514998 -121.495321 129 27ft 0kts
18-Jun-17 15:39 38.515322 -121.495789 132 27ft 0kts
18-Jun-17 15:40 38.515322 -121.495788 132 27ft 0kts
18-Jun-17 15:41 38.515322 -121.495788 132 27ft 0kts
18-Jun-17 15:42 38.515321 -121.495788 132 27ft 0kts
18-Jun-17 15:43 38.515321 -121.495787 132 27ft 0kts
18-Jun-17 15:44 38.515321 -121.495787 132 27ft 0kts
18-Jun-17 15:45 38.515321 -121.495787 132 27ft 0kts
18-Jun-17 15:46 38.515321 -121.495787 132 27ft 0kts
18-Jun-17 15:47 38.513947 -121.496162 208 27ft 9kts
18-Jun-17 15:48 38.515485 -121.493925 33 27ft 19kts
18-Jun-17 15:49 38.519195 -121.490330 102 27ft 0kts
18-Jun-17 15:50 38.519195 -121.490329 102 27ft 0kts
18-Jun-17 15:51 38.519195 -121.490329 102 27ft 0kts
18-Jun-17 15:52 38.519195 -121.490329 102 27ft 0kts
18-Jun-17 15:53 38.519195 -121.490328 102 27ft 0kts
18-Jun-17 15:54 38.519191 -121.490307 102 27ft 1kts
18-Jun-17 15:55 38.510070 -121.496736 213 240ft 73kts
18-Jun-17 15:56 38.503982 -121.519856 270 992ft 74kts
18-Jun-17 15:57 38.503519 -121.546581 270 1676ft 77kts
18-Jun-17 15:58 38.502736 -121.574016 265 2335ft 77kts
18-Jun-17 15:59 38.494765 -121.597934 191 2894ft 83kts
18-Jun-17 16:00 38.472660 -121.579175 145 2972ft 109kts
18-Jun-17 16:01 38.448637 -121.555638 144 3073ft 109kts
18-Jun-17 16:02 38.441801 -121.523181 62 3071ft 109kts
18-Jun-17 16:03 38.451819 -121.485881 80 3035ft 111kts
18-Jun-17 16:03 38.455780 -121.452793 82 3021ft 112kts
18-Jun-17 16:04 38.460931 -121.413485 82 3025ft 111kts
18-Jun-17 16:05 38.467337 -121.374782 72 3036ft 112kts
18-Jun-17 16:06 38.495951 -121.371472 345 2951ft 112kts
18-Jun-17 16:07 38.521194 -121.379292 349 2294ft 79kts
18-Jun-17 16:08 38.542858 -121.385775 345 2173ft 78kts
18-Jun-17 16:09 38.564281 -121.390688 356 2039ft 78kts
18-Jun-17 16:10 38.585965 -121.388613 356 1483ft 78kts
18-Jun-17 16:11 38.606937 -121.395382 356 942ft 78kts
18-Jun-17 16:12 38.628305 -121.399124 350 540ft 76kts
18-Jun-17 16:13 38.650240 -121.401354 357 645ft 92kts
18-Jun-17 16:14 38.675445 -121.400727 1 1378ft 90kts
18-Jun-17 16:15 38.700936 -121.404073 3 2008ft 91kts
18-Jun-17 16:16 38.729482 -121.401109 357 2219ft 109kts
18-Jun-17 16:17 38.761211 -121.399056 4 2196ft 119kts
18-Jun-17 16:18 38.794037 -121.402267 0 2173ft 119kts
18-Jun-17 16:19 38.826997 -121.403195 358 2147ft 118kts
18-Jun-17 16:20 38.857762 -121.394781 55 2144ft 117kts
18-Jun-17 16:21 38.842203 -121.374337 208 2227ft 114kts
18-Jun-17 16:22 38.813782 -121.395028 208 2199ft 116kts
18-Jun-17 16:23 38.786872 -121.386449 97 2177ft 116kts
18-Jun-17 16:24 38.811641 -121.372346 356 2162ft 118kts
18-Jun-17 16:25 38.843324 -121.372744 343 2230ft 119kts
18-Jun-17 16:26 38.842852 -121.402718 185 2211ft 117kts
18-Jun-17 16:27 38.814308 -121.399380 181 1714ft 93kts
18-Jun-17 16:28 38.788738 -121.400728 176 1476ft 89kts
18-Jun-17 16:29 38.764208 -121.399667 177 1580ft 82kts
18-Jun-17 16:30 38.743051 -121.398696 187 1183ft 73kts
18-Jun-17 16:31 38.723190 -121.400586 178 900ft 76kts
18-Jun-17 16:32 38.702586 -121.400544 181 525ft 75kts
18-Jun-17 16:33 38.683357 -121.400435 179 104ft 63kts
18-Jun-17 16:34 38.676397 -121.400618 193 78ft 0kts

Navigation Log

Ident Type
Flight plan parsing failed, navigation log unavailable